Ship Status Report: callsign BOGE

sailwx.info

Track history (hours):
 
Tides and Currents Weather Stations Pressure Air Temp Water Temp Dewpoint Dewpoint Depression Visibility Wind Speed Wind Dir Waves Ship Positions

Callsign BOGE (name unknown)

Last reported at 2014-Dec-06 20:11 UTC. Time now 2014-Dec-22 08:29 UTC.
Position N 31°07' E 121°28'.
Warning: this ship's position is 15 days out of date.

Date/timePositionNaut miles runAvg speedWind from/ knotsBaromVisibWave heightAir tempDewpointWater temp
2014-Dec-06 20:11N 31°07' E 121°28'3 4.1
2014-Dec-06 19:31N 31°10' E 121°28'  
2014-Dec-03 23:30N 01°10' E 103°47'1010.4
2014-Dec-03 22:33N 01°15' E 103°56'2 1.5
2014-Dec-03 21:04N 01°17' E 103°56'0 0.0
2014-Dec-03 20:22N 01°17' E 103°56'0 0.0
2014-Dec-03 19:28N 01°17' E 103°56'0 0.0
2014-Dec-03 18:22N 01°17' E 103°56'0 0.0
2014-Dec-03 17:25N 01°17' E 103°56'0 0.0
2014-Dec-03 16:28N 01°17' E 103°56'0 0.0
2014-Dec-03 15:22N 01°17' E 103°56'0 0.0
2014-Dec-03 10:28N 01°17' E 103°56'0 0.1
2014-Dec-03 09:22N 01°17' E 103°56'0 0.1
2014-Dec-03 08:10N 01°17' E 103°56'0 0.0
2014-Dec-03 07:28N 01°17' E 103°56'0 0.0
2014-Dec-03 06:31N 01°17' E 103°56'0 0.0
2014-Dec-03 05:28N 01°17' E 103°56'0 0.0
2014-Dec-03 04:28N 01°17' E 103°56'0 0.0
2014-Dec-03 03:28N 01°17' E 103°56'0 0.0
2014-Dec-03 02:28N 01°17' E 103°56'0 0.1
2014-Dec-02 22:29N 01°16' E 103°56'4 4.3
2014-Dec-02 21:33N 01°16' E 103°59'7 7.0
2014-Dec-02 20:33N 01°16' E 104°06'  
Track history (hours):
 
Tides and Currents Weather Stations Pressure Air Temp Water Temp Dewpoint Dewpoint Depression Visibility Wind Speed Wind Dir Waves Ship Positions

Callsign BOGE (name unknown)

Last reported at 2014-Dec-06 20:11 UTC. Time now 2014-Dec-22 08:29 UTC.
Position N 31°07' E 121°28'.
Warning: this ship's position is 15 days out of date.

Date/timePositionNaut miles runAvg speedWind from/ knotsBaromVisibWave heightAir tempDewpointWater temp
2014-Dec-06 20:11N 31°07' E 121°28'3 4.1
2014-Dec-06 19:31N 31°10' E 121°28'  
2014-Dec-03 23:30N 01°10' E 103°47'1010.4
2014-Dec-03 22:33N 01°15' E 103°56'2 1.5
2014-Dec-03 21:04N 01°17' E 103°56'0 0.0
2014-Dec-03 20:22N 01°17' E 103°56'0 0.0
2014-Dec-03 19:28N 01°17' E 103°56'0 0.0
2014-Dec-03 18:22N 01°17' E 103°56'0 0.0
2014-Dec-03 17:25N 01°17' E 103°56'0 0.0
2014-Dec-03 16:28N 01°17' E 103°56'0 0.0
2014-Dec-03 15:22N 01°17' E 103°56'0 0.0
2014-Dec-03 10:28N 01°17' E 103°56'0 0.1
2014-Dec-03 09:22N 01°17' E 103°56'0 0.1
2014-Dec-03 08:10N 01°17' E 103°56'0 0.0
2014-Dec-03 07:28N 01°17' E 103°56'0 0.0
2014-Dec-03 06:31N 01°17' E 103°56'0 0.0
2014-Dec-03 05:28N 01°17' E 103°56'0 0.0
2014-Dec-03 04:28N 01°17' E 103°56'0 0.0
2014-Dec-03 03:28N 01°17' E 103°56'0 0.0
2014-Dec-03 02:28N 01°17' E 103°56'0 0.1
2014-Dec-02 22:29N 01°16' E 103°56'4 4.3
2014-Dec-02 21:33N 01°16' E 103°59'7 7.0
2014-Dec-02 20:33N 01°16' E 104°06'  

Dump ship's entire track history